Rechercher aéroport 
image banner adimage banner ad
image banner ad

DNMN - Minna/Minna

Situé à Minna, Nigeria

ICAO - DNMN, IATA - MXJ

Données fournies par Airmate  

Information générale

Coordonnées: N9°39'8" E6°27'44"
Élévation : 898 feet MSL.
 
Voir autres Aéroports à Niger

Données opérationnelles

Accessible au public
Heure actuelle UTC:
Heure actuelle locale:
Météo
TAF: TAF DNMN 282300Z 2900/3006 28004KT CAVOK PROB30 TEMPO 2903/2908 5000 BR BKN007 BECMG 2908/2910 17010KT BKN010
Voir NOTAMs / SUP AIP / TFR affectant cet aéroport [VIEW]
Fréquences de communication: [VIEW]

Pistes:

Identifiant RWYQFULongueur (ft)Largeur (ft)SurfaceLDA (ft)
0545°11153145ASP
23225°11155148

Coordonnées de l'aéroport

Adresse: Minna Nigeria

Vue satellite de DNMN